Aérodrome :
LOGIN :

S'inscrire | Disclaimer

   EN    FR    IT 

 










Légende :    VFR   VFR Marginal   IFR   IFR Intensif   IFR Très Intensif
Visi : 
Plafond : 
>= 8 km
>= 3000ft
5 à 8 km
1000 à 3000 ft
1500m à 5 km
500 à 1000 ft
800 à 1500m
200 à 500 ft
< 800m
< 200 ft
Symboles :   Orages  Brouillard  Fortes neiges  Fortes précipitations  Vent > 20 kt
SIGMETs :   Divers  Orages  Givrage  Turbulence  Onde Orograph.  Cendres Volcan.






- Altitude de l'aérodrome : 119 ft
- Code IATA : WAT


EIWF - Waterford

DERNIER METAR :
  • 140930Z VRB02KT 9999 FEW013 08/08 Q1034

METARs EXPIRÉS :
  • 140900Z VRB03KT 9999 FEW010 08/07 Q1034
  • 140830Z VRB01KT 6000W FEW004 06/06 Q1033
  • 140800Z VRB02KT 2000W BR SCT002 05/05 Q1033
  • 140730Z 04003KT 0300 FG BKN002 04/04 Q1033
  • 140700Z 03002KT 0200 FG BKN002 03/03 Q1033

TAF TAF EIWF
Valide du 14 à 09h jusqu'au 14 à 18h UTC


140800Z 1409/1418 VRB03KT 1200 BR BKN002
BECMG 1409/1411 9999 NSW
ATIS : +353 51 877 000



MET'MAP, la Météo Aéronautique d'un coup d'oeil ! - Copyright ORBIFLY Décembre 2007 - Disclaimer

ORBIFLY MET'MAP TEAM :

Programmation & Développement : Alexandra Zaïnal
Sur une idée originale de : Baudouin d'Aumeries
Assistance à la programmation : Marc-Olivier Méhu
Soutien technique & logistique : Manuel Goepfert

Contact : metmap@orbifly.com




SOURCES & CREDITS :

   NOAA